createdAt,value
2019-06-20T00:00:52.425Z,76.60
2019-06-20T00:03:21.249Z,76.90
2019-06-20T00:05:50.119Z,77.50
2019-06-20T00:08:18.981Z,78.20
2019-06-20T00:10:47.789Z,78.50
2019-06-20T00:13:16.678Z,79.20
2019-06-20T00:15:45.501Z,79.90
2019-06-20T00:18:14.326Z,80.40
2019-06-20T00:20:43.245Z,80.90
2019-06-20T00:23:12.105Z,81.20
2019-06-20T00:25:40.975Z,81.20
2019-06-20T00:28:09.905Z,81.10
2019-06-20T00:30:39.281Z,81.20
2019-06-20T00:33:08.161Z,81.30
2019-06-20T00:35:37.073Z,81.40
2019-06-20T00:38:05.957Z,81.60
2019-06-20T00:40:34.809Z,81.80
2019-06-20T00:43:16.218Z,81.90
2019-06-20T00:45:34.239Z,81.80
2019-06-20T00:48:03.102Z,81.60
2019-06-20T00:50:32.008Z,80.80
2019-06-20T00:53:00.880Z,77.90
2019-06-20T00:55:29.740Z,76.40
2019-06-20T00:57:58.669Z,75.20
2019-06-20T01:00:27.563Z,75.20
2019-06-20T01:02:56.405Z,75.20
2019-06-20T01:05:25.321Z,75.30
2019-06-20T01:07:54.141Z,76.00
2019-06-20T01:10:22.984Z,76.90
2019-06-20T01:12:51.867Z,78.20
2019-06-20T01:15:20.801Z,78.00
2019-06-20T01:17:49.629Z,78.00
2019-06-20T01:20:19.436Z,77.90
2019-06-20T01:22:48.271Z,77.80
2019-06-20T01:25:20.048Z,77.70
2019-06-20T01:27:48.930Z,77.40
2019-06-20T01:30:17.952Z,77.30
2019-06-20T01:32:46.768Z,77.40
2019-06-20T01:35:15.917Z,77.30
2019-06-20T01:52:50.527Z,75.50
2019-06-20T01:55:19.377Z,75.90
2019-06-20T01:57:48.224Z,76.30
2019-06-20T02:00:44.080Z,76.10
2019-06-20T02:03:14.362Z,76.20
2019-06-20T02:05:43.495Z,76.30
2019-06-20T02:08:12.370Z,76.60
2019-06-20T02:10:41.224Z,76.50
2019-06-20T02:13:10.054Z,76.30
2019-06-20T02:15:39.060Z,75.90
2019-06-20T02:18:07.886Z,75.90
2019-06-20T02:20:45.589Z,76.80
2019-06-20T02:23:14.432Z,75.50
2019-06-20T02:25:43.276Z,75.20
2019-06-20T02:28:12.166Z,74.70
2019-06-20T02:30:40.989Z,74.70
2019-06-20T02:33:09.807Z,74.70
2019-06-20T02:35:38.677Z,74.80
2019-06-20T02:38:07.501Z,74.50
2019-06-20T02:40:36.425Z,74.50
2019-06-20T02:43:05.687Z,74.40
2019-06-20T02:45:35.067Z,74.80
2019-06-20T02:48:04.105Z,74.90
2019-06-20T02:50:32.969Z,74.60
2019-06-20T02:53:02.702Z,74.70
2019-06-20T02:55:31.517Z,75.00
2019-06-20T02:58:00.410Z,74.90
2019-06-20T03:00:44.123Z,75.10
2019-06-20T03:03:13.021Z,75.10
2019-06-20T03:05:41.854Z,75.50
2019-06-20T03:08:10.683Z,75.40
2019-06-20T03:10:39.665Z,75.60
2019-06-20T03:13:09.541Z,75.50
2019-06-20T03:15:38.529Z,75.40
2019-06-20T03:18:07.399Z,75.70
2019-06-20T03:20:36.246Z,75.80
2019-06-20T03:23:05.162Z,75.90
2019-06-20T03:25:34.759Z,75.70
2019-06-20T03:28:03.713Z,76.00
2019-06-20T03:30:32.547Z,76.30
2019-06-20T03:33:01.433Z,76.70
2019-06-20T03:35:30.255Z,76.80
2019-06-20T03:37:59.094Z,76.70
2019-06-20T03:40:28.004Z,77.60
2019-06-20T03:42:56.844Z,78.10
2019-06-20T03:45:25.665Z,78.40
2019-06-20T03:47:54.552Z,78.80
2019-06-20T03:50:23.364Z,79.40
2019-06-20T03:52:53.759Z,79.70
2019-06-20T03:55:22.632Z,80.30
2019-06-20T03:57:51.472Z,79.80
2019-06-20T04:00:22.984Z,79.90
2019-06-20T04:02:51.861Z,80.20
2019-06-20T04:05:20.684Z,80.80
2019-06-20T04:07:49.522Z,81.00
2019-06-20T04:10:18.428Z,80.80
2019-06-20T04:12:47.255Z,81.40
2019-06-20T04:15:19.330Z,81.40
2019-06-20T04:17:46.692Z,81.50
2019-06-20T04:20:15.548Z,81.10
2019-06-20T04:22:44.396Z,80.50
2019-06-20T04:25:13.381Z,80.00
2019-06-20T04:27:42.219Z,80.60
2019-06-20T04:30:11.033Z,80.60
2019-06-20T04:32:39.935Z,80.20
2019-06-20T04:35:08.856Z,80.70
2019-06-20T04:37:37.686Z,80.20
2019-06-20T04:40:09.932Z,80.70
2019-06-20T04:42:38.769Z,80.60
2019-06-20T04:45:09.505Z,80.10
2019-06-20T04:47:38.370Z,80.50
2019-06-20T04:50:07.308Z,79.30
2019-06-20T04:52:36.161Z,79.20
2019-06-20T04:55:06.131Z,79.80
2019-06-20T04:57:34.963Z,79.60
2019-06-20T05:00:05.609Z,79.40
2019-06-20T05:02:34.489Z,79.90
2019-06-20T05:05:05.478Z,79.80
2019-06-20T05:07:34.331Z,80.30
2019-06-20T05:10:04.124Z,80.80
2019-06-20T05:12:32.973Z,80.70
2019-06-20T05:15:01.807Z,80.70
2019-06-20T05:17:30.675Z,81.00
2019-06-20T05:19:59.489Z,79.60
2019-06-20T05:22:28.336Z,78.90
2019-06-20T05:24:57.202Z,77.60
2019-06-20T05:27:26.026Z,77.30
2019-06-20T05:29:54.840Z,74.50
2019-06-20T05:32:23.737Z,74.90
2019-06-20T05:34:52.555Z,74.10
2019-06-20T05:37:21.395Z,72.50
2019-06-20T05:39:50.271Z,72.60
2019-06-20T05:42:19.089Z,73.10
2019-06-20T05:44:47.914Z,72.60
2019-06-20T05:47:16.795Z,72.10
2019-06-20T05:49:45.629Z,72.40
2019-06-20T05:52:14.475Z,72.90
2019-06-20T05:54:43.342Z,73.20
2019-06-20T05:57:12.173Z,72.70
2019-06-20T05:59:40.995Z,72.40
2019-06-20T06:02:09.985Z,71.70
2019-06-20T06:04:38.814Z,71.90
2019-06-20T06:07:07.655Z,71.30
2019-06-20T06:09:36.546Z,71.00
2019-06-20T06:12:05.613Z,69.20
2019-06-20T06:14:34.451Z,68.80
2019-06-20T06:17:03.615Z,68.80
2019-06-20T06:19:32.558Z,68.60
2019-06-20T06:22:01.386Z,68.40
2019-06-20T06:24:30.283Z,68.50
2019-06-20T06:27:00.051Z,69.80
2019-06-20T06:29:29.144Z,70.20
2019-06-20T06:31:58.038Z,71.40
2019-06-20T06:34:26.848Z,71.90
2019-06-20T06:36:55.678Z,72.90
2019-06-20T06:39:24.549Z,73.20
2019-06-20T06:41:53.407Z,73.10
2019-06-20T06:44:22.218Z,73.50
2019-06-20T06:46:55.746Z,73.20
2019-06-20T06:49:21.562Z,72.80
2019-06-20T06:51:50.410Z,73.20
2019-06-20T06:54:19.300Z,73.10
2019-06-20T06:56:48.113Z,71.00
2019-06-20T06:59:16.942Z,70.90
2019-06-20T07:01:45.845Z,70.50
2019-06-20T07:04:14.672Z,70.10
2019-06-20T07:06:43.616Z,69.80
2019-06-20T07:09:12.794Z,71.10
2019-06-20T07:11:41.643Z,71.20
2019-06-20T07:14:10.476Z,71.50
2019-06-20T07:16:39.367Z,70.10
2019-06-20T07:19:08.220Z,69.20
2019-06-20T07:21:36.995Z,70.40
2019-06-20T07:24:05.896Z,70.20
2019-06-20T07:26:34.740Z,70.20
2019-06-20T07:29:03.584Z,68.70
2019-06-20T07:31:32.495Z,67.60
2019-06-20T07:34:01.317Z,67.20
2019-06-20T07:36:30.142Z,68.10
2019-06-20T07:38:59.624Z,65.70
2019-06-20T07:41:28.629Z,65.70
2019-06-20T07:43:57.734Z,65.40
2019-06-20T07:46:26.621Z,66.60
2019-06-20T07:48:55.852Z,65.50
2019-06-20T07:51:24.719Z,64.70
2019-06-20T07:53:53.736Z,64.10
2019-06-20T07:56:22.633Z,64.80
2019-06-20T07:58:51.712Z,65.80
2019-06-20T08:01:20.660Z,64.40
2019-06-20T08:03:49.546Z,64.10
2019-06-20T08:06:18.426Z,65.40
2019-06-20T08:08:47.296Z,66.40
2019-06-20T08:11:16.142Z,64.60
2019-06-20T08:13:44.987Z,62.30
2019-06-20T08:16:13.853Z,64.60
2019-06-20T08:18:42.679Z,65.50
2019-06-20T08:21:11.519Z,64.40
2019-06-20T08:23:40.423Z,65.40
2019-06-20T08:26:09.266Z,64.30
2019-06-20T08:28:38.093Z,64.40
2019-06-20T08:31:06.973Z,64.10
2019-06-20T08:33:35.796Z,62.90
2019-06-20T08:36:06.570Z,64.10
2019-06-20T08:38:35.930Z,61.70
2019-06-20T08:41:06.414Z,61.70
2019-06-20T08:43:35.668Z,62.80
2019-06-20T08:46:09.935Z,63.20
2019-06-20T08:48:35.125Z,61.00
2019-06-20T08:51:04.511Z,60.30
2019-06-20T08:53:33.569Z,58.40
2019-06-20T08:56:03.197Z,57.60
2019-06-20T08:58:32.103Z,58.50
2019-06-20T09:03:31.474Z,56.80
2019-06-20T09:06:00.286Z,57.20
2019-06-20T09:08:29.176Z,58.60
2019-06-20T09:10:58.018Z,59.60
2019-06-20T09:13:26.890Z,58.60
2019-06-20T09:15:56.780Z,58.80
2019-06-20T09:18:25.821Z,57.90
2019-06-20T09:20:55.860Z,57.30
2019-06-20T09:23:25.217Z,55.10
2019-06-20T09:25:55.852Z,51.90
2019-06-20T09:28:24.542Z,52.70
2019-06-20T09:30:53.932Z,53.20
2019-06-20T09:33:23.890Z,51.00
2019-06-20T09:35:53.877Z,51.00
2019-06-20T09:38:24.420Z,51.80
2019-06-20T09:40:53.260Z,50.80
2019-06-20T09:43:27.591Z,48.20
2019-06-20T09:45:53.159Z,49.20
2019-06-20T09:48:23.096Z,48.30
2019-06-20T09:50:52.991Z,47.00
2019-06-20T09:53:22.479Z,48.20
2019-06-20T09:55:51.793Z,48.30
2019-06-20T09:58:20.805Z,48.50
2019-06-20T10:00:50.741Z,49.30
2019-06-20T10:03:20.023Z,47.10
2019-06-20T10:05:49.284Z,45.90
2019-06-20T10:08:19.390Z,47.30
2019-06-20T10:10:49.331Z,46.80
2019-06-20T10:13:18.710Z,45.50
2019-06-20T10:15:47.958Z,45.70
2019-06-20T10:18:17.280Z,42.60
2019-06-20T10:20:47.179Z,44.20
2019-06-20T10:23:16.087Z,43.40
2019-06-20T10:25:46.024Z,42.70
2019-06-20T10:28:15.376Z,42.70
2019-06-20T10:30:44.783Z,41.10
2019-06-20T10:33:13.786Z,38.80
2019-06-20T10:35:45.119Z,38.90
2019-06-20T10:38:13.146Z,38.90
2019-06-20T10:40:41.975Z,39.00
2019-06-20T10:43:10.809Z,38.90
2019-06-20T10:45:39.890Z,38.60
2019-06-20T10:48:08.796Z,37.20
2019-06-20T10:50:37.622Z,37.50
2019-06-20T10:53:07.026Z,37.90
2019-06-20T10:55:35.837Z,35.70
2019-06-20T10:58:04.681Z,37.00
2019-06-20T11:00:33.951Z,35.70
2019-06-20T11:03:02.773Z,35.40
2019-06-20T11:05:31.582Z,36.00
2019-06-20T11:08:00.452Z,36.70
2019-06-20T11:10:30.093Z,37.00
2019-06-20T11:12:58.940Z,36.40
2019-06-20T11:15:29.020Z,35.00
2019-06-20T11:17:57.845Z,37.40
2019-06-20T11:20:27.189Z,36.30
2019-06-20T11:22:56.082Z,36.30
2019-06-20T11:25:24.917Z,36.90
2019-06-20T11:27:53.739Z,34.80
2019-06-20T11:30:25.408Z,36.90
2019-06-20T11:32:54.250Z,37.10
2019-06-20T11:35:23.071Z,37.60
2019-06-20T11:37:51.966Z,37.30
2019-06-20T11:40:21.302Z,36.90
2019-06-20T11:42:50.143Z,35.50
2019-06-20T11:45:19.207Z,36.10
2019-06-20T11:47:48.059Z,35.70
2019-06-20T11:50:17.962Z,36.70
2019-06-20T11:52:46.817Z,35.00
2019-06-20T11:55:16.257Z,35.00
2019-06-20T11:57:45.136Z,36.70
2019-06-20T12:00:15.186Z,35.90
2019-06-20T12:02:44.459Z,35.30
2019-06-20T12:05:15.526Z,37.10
2019-06-20T12:07:45.636Z,38.20
2019-06-20T12:10:15.711Z,37.60
2019-06-20T12:12:44.779Z,36.30
2019-06-20T12:15:16.875Z,37.70
2019-06-20T12:17:47.202Z,38.50
2019-06-20T12:20:17.257Z,36.50
2019-06-20T12:22:46.629Z,36.50
2019-06-20T12:25:16.696Z,38.70
2019-06-20T12:27:45.697Z,36.30
2019-06-20T12:30:16.334Z,36.10
2019-06-20T12:32:46.669Z,34.30
2019-06-20T12:35:16.053Z,34.40
2019-06-20T12:37:45.264Z,32.70
2019-06-20T12:40:16.220Z,33.80
2019-06-20T12:42:45.042Z,33.10
2019-06-20T12:45:15.824Z,32.30
2019-06-20T12:47:45.938Z,33.90
2019-06-20T12:50:16.296Z,35.10
2019-06-20T12:52:45.699Z,34.00
2019-06-20T12:55:16.684Z,34.60
2019-06-20T12:57:46.351Z,34.30
2019-06-20T13:00:16.503Z,34.40
2019-06-20T13:02:45.587Z,34.40
2019-06-20T13:05:16.554Z,33.20
2019-06-20T13:07:46.465Z,33.70
2019-06-20T13:10:16.439Z,33.70
2019-06-20T13:12:46.342Z,36.00
2019-06-20T13:15:16.243Z,36.60
2019-06-20T13:17:46.460Z,35.90
2019-06-20T13:20:16.254Z,35.50
2019-06-20T13:22:46.445Z,35.20
2019-06-20T13:25:15.737Z,35.30
2019-06-20T13:27:45.671Z,34.70
2019-06-20T13:30:15.517Z,35.20
2019-06-20T13:32:45.373Z,35.20
2019-06-20T13:35:15.484Z,35.30
2019-06-20T13:37:45.718Z,35.10
2019-06-20T13:40:15.659Z,34.10
2019-06-20T13:42:45.947Z,35.80
2019-06-20T13:45:20.938Z,35.40
2019-06-20T13:47:49.993Z,35.00
2019-06-20T13:50:20.308Z,34.90
2019-06-20T13:52:51.054Z,33.70
2019-06-20T13:55:19.943Z,34.90
2019-06-20T13:57:49.236Z,35.10
2019-06-20T14:00:20.537Z,35.10
2019-06-20T14:02:51.144Z,36.30
2019-06-20T14:05:19.835Z,35.10
2019-06-20T14:07:53.226Z,35.40
2019-06-20T14:10:19.376Z,35.00
2019-06-20T14:12:48.860Z,34.10
2019-06-20T14:15:19.106Z,33.90
2019-06-20T14:17:49.795Z,33.90
2019-06-20T14:20:19.858Z,32.00
2019-06-20T14:22:49.625Z,33.40
2019-06-20T14:25:20.307Z,33.00
2019-06-20T14:27:49.582Z,34.50
2019-06-20T14:30:21.066Z,33.30
2019-06-20T14:32:51.281Z,35.20
2019-06-20T14:35:20.814Z,35.40
2019-06-20T14:37:51.567Z,34.90
2019-06-20T14:40:20.653Z,35.70
2019-06-20T14:42:50.294Z,35.10
2019-06-20T14:45:19.797Z,35.50
2019-06-20T14:47:48.584Z,35.30
2019-06-20T14:50:18.568Z,36.00
2019-06-20T14:52:48.513Z,36.30
2019-06-20T14:55:18.508Z,36.60
2019-06-20T14:57:48.480Z,36.40
2019-06-20T15:00:19.480Z,37.10
2019-06-20T15:02:53.085Z,35.80
2019-06-20T15:05:19.555Z,36.60
2019-06-20T15:07:49.582Z,36.90
2019-06-20T15:10:19.017Z,35.50
2019-06-20T15:12:49.442Z,36.20
2019-06-20T15:15:18.460Z,36.20
2019-06-20T15:17:49.878Z,36.50
2019-06-20T15:20:17.844Z,37.40
2019-06-20T15:22:47.428Z,35.50
2019-06-20T15:25:17.280Z,34.90
2019-06-20T15:27:48.080Z,36.60
2019-06-20T15:30:18.150Z,36.60
2019-06-20T15:33:01.157Z,37.50
2019-06-20T15:35:18.382Z,36.40
2019-06-20T15:37:48.364Z,34.90
2019-06-20T15:40:18.730Z,35.10
2019-06-20T15:42:49.191Z,35.30
2019-06-20T15:45:18.293Z,36.50
2019-06-20T15:47:47.096Z,36.40
2019-06-20T15:50:16.009Z,37.30
2019-06-20T15:52:44.901Z,36.50
2019-06-20T15:55:15.299Z,35.20
2019-06-20T15:57:44.198Z,34.00
2019-06-20T16:00:13.716Z,34.50
2019-06-20T16:02:42.530Z,34.90
2019-06-20T16:05:12.556Z,35.80
2019-06-20T16:07:41.419Z,35.10
2019-06-20T16:10:10.351Z,35.90
2019-06-20T16:12:39.186Z,34.50
2019-06-20T16:15:10.440Z,34.30
2019-06-20T16:17:39.245Z,33.50
2019-06-20T16:20:08.356Z,35.20
2019-06-20T16:22:37.271Z,32.80
2019-06-20T16:25:07.843Z,33.40
2019-06-20T16:27:36.676Z,34.00
2019-06-20T16:30:09.292Z,32.70
2019-06-20T16:32:38.098Z,33.00
2019-06-20T16:35:10.065Z,33.50
2019-06-20T16:37:38.950Z,32.60
2019-06-20T16:40:10.693Z,33.10
2019-06-20T16:42:43.145Z,32.80
2019-06-20T16:45:12.868Z,32.40
2019-06-20T16:47:41.720Z,32.40
2019-06-20T16:50:10.754Z,32.90
2019-06-20T16:52:39.645Z,32.80
2019-06-20T16:55:17.750Z,32.60
2019-06-20T16:57:46.669Z,32.30
2019-06-20T17:00:17.270Z,32.70
2019-06-20T17:02:46.063Z,32.70
2019-06-20T17:05:20.499Z,32.10
2019-06-20T17:07:49.343Z,31.80
2019-06-20T17:10:18.949Z,31.40
2019-06-20T17:12:47.835Z,31.90
2019-06-20T17:15:22.695Z,32.20
2019-06-20T17:17:51.554Z,32.10
2019-06-20T17:20:21.296Z,32.30
2019-06-20T17:22:50.098Z,32.30
2019-06-20T17:25:19.085Z,32.80
2019-06-20T17:27:47.966Z,32.50
2019-06-20T17:30:24.252Z,32.90
2019-06-20T17:32:53.159Z,32.40
2019-06-20T17:35:23.023Z,32.90
2019-06-20T17:37:51.860Z,33.50
2019-06-20T17:40:28.033Z,32.50
2019-06-20T17:42:56.883Z,33.40
2019-06-20T17:45:26.207Z,34.00
2019-06-20T17:47:55.110Z,33.50
2019-06-20T17:50:26.004Z,34.20
2019-06-20T17:52:54.951Z,33.90
2019-06-20T17:55:23.819Z,33.90
2019-06-20T17:57:52.663Z,34.70
2019-06-20T18:00:22.103Z,34.10
2019-06-20T18:02:50.991Z,34.00
2019-06-20T18:05:20.373Z,34.80
2019-06-20T18:07:49.234Z,34.70
2019-06-20T18:10:18.920Z,34.70
2019-06-20T18:12:47.776Z,35.60
2019-06-20T18:15:16.941Z,36.60
2019-06-20T18:17:45.852Z,37.00
2019-06-20T18:20:16.224Z,37.50
2019-06-20T18:22:45.144Z,37.00
2019-06-20T18:25:16.328Z,36.70
2019-06-20T18:27:45.224Z,37.70
2019-06-20T18:30:16.442Z,37.90
2019-06-20T18:32:45.292Z,38.50
2019-06-20T18:35:14.126Z,38.80
2019-06-20T18:37:43.090Z,39.50
2019-06-20T18:40:12.212Z,39.50
2019-06-20T18:42:41.111Z,40.30
2019-06-20T18:45:11.309Z,40.40
2019-06-20T18:47:40.156Z,40.80
2019-06-20T18:50:09.489Z,41.30
2019-06-20T18:52:51.149Z,40.30
2019-06-20T18:55:09.491Z,39.30
2019-06-20T18:57:38.353Z,39.10
2019-06-20T19:00:09.936Z,39.50
2019-06-20T19:02:38.890Z,39.80
2019-06-20T19:05:08.636Z,39.10
2019-06-20T19:07:37.526Z,39.70
2019-06-20T19:10:07.883Z,39.70
2019-06-20T19:12:36.747Z,40.30
2019-06-20T19:15:09.650Z,40.40
2019-06-20T19:17:38.492Z,41.10
2019-06-20T19:20:07.943Z,41.80
2019-06-20T19:22:36.848Z,42.50
2019-06-20T19:25:09.309Z,42.80
2019-06-20T19:27:46.169Z,42.70
2019-06-20T19:30:10.847Z,42.50
2019-06-20T19:32:39.727Z,41.90
2019-06-20T19:35:10.337Z,42.00
2019-06-20T19:37:39.516Z,41.50
2019-06-20T19:40:09.039Z,41.20
2019-06-20T19:42:38.002Z,41.40
2019-06-20T19:45:13.243Z,40.70
2019-06-20T19:47:42.399Z,40.80
2019-06-20T19:50:11.765Z,40.30
2019-06-20T19:52:40.843Z,40.30
2019-06-20T19:55:10.092Z,40.80
2019-06-20T19:57:38.947Z,40.80
2019-06-20T20:00:08.659Z,40.00
2019-06-20T20:02:37.498Z,40.60
2019-06-20T20:05:19.091Z,40.40
2019-06-20T20:07:40.147Z,40.40
2019-06-20T20:10:09.795Z,40.10
2019-06-20T20:12:38.626Z,40.70
2019-06-20T20:15:10.135Z,40.80
2019-06-20T20:17:38.965Z,40.00
2019-06-20T20:20:09.403Z,39.80
2019-06-20T20:22:39.750Z,40.20
2019-06-20T20:25:09.810Z,40.00
2019-06-20T20:27:38.623Z,39.10
2019-06-20T20:30:11.260Z,40.10
2019-06-20T20:32:40.109Z,40.60
2019-06-20T20:35:08.965Z,40.70
2019-06-20T20:37:37.961Z,40.90
2019-06-20T20:40:08.596Z,41.30
2019-06-20T20:42:37.445Z,41.00
2019-06-20T20:45:07.893Z,41.50
2019-06-20T20:47:37.133Z,42.40
2019-06-20T20:50:06.970Z,41.90
2019-06-20T20:52:35.861Z,41.70
2019-06-20T20:55:09.710Z,42.20
2019-06-20T20:57:38.531Z,41.50
2019-06-20T21:00:28.200Z,42.90
2019-06-20T21:02:57.063Z,42.70
2019-06-20T21:05:25.904Z,42.80
2019-06-20T21:08:06.947Z,43.50
2019-06-20T21:10:35.808Z,45.20
2019-06-20T21:13:04.665Z,45.40
2019-06-20T21:15:33.546Z,44.80
2019-06-20T21:18:02.470Z,45.50
2019-06-20T21:20:31.275Z,45.30
2019-06-20T21:23:00.209Z,45.90
2019-06-20T21:25:32.045Z,46.40
2019-06-20T21:27:59.565Z,47.30
2019-06-20T21:30:28.457Z,47.90
2019-06-20T21:32:57.416Z,48.50
2019-06-20T21:35:26.280Z,48.40
2019-06-20T21:37:55.214Z,48.80
2019-06-20T21:40:24.055Z,49.00
2019-06-20T21:43:04.907Z,49.00
2019-06-20T21:45:33.752Z,48.90
2019-06-20T21:48:02.627Z,49.30
2019-06-20T21:50:31.493Z,49.50
2019-06-20T21:53:00.433Z,50.00
2019-06-20T21:55:29.273Z,50.30
2019-06-20T21:57:58.196Z,50.60
2019-06-20T22:00:40.264Z,51.30
2019-06-20T22:03:10.260Z,52.50
2019-06-20T22:05:39.818Z,52.70
2019-06-20T22:08:08.650Z,52.30
2019-06-20T22:10:37.549Z,53.00
2019-06-20T22:13:06.692Z,53.10
2019-06-20T22:15:35.547Z,53.10
2019-06-20T22:18:04.791Z,52.70
2019-06-20T22:20:33.737Z,52.60
2019-06-20T22:23:02.587Z,53.90
2019-06-20T22:25:31.461Z,53.00
2019-06-20T22:28:05.245Z,52.50
2019-06-20T22:30:43.126Z,53.10
2019-06-20T22:33:11.981Z,53.00
2019-06-20T22:35:40.851Z,53.50
2019-06-20T22:38:09.773Z,54.30
2019-06-20T22:40:38.626Z,54.40
2019-06-20T22:43:08.567Z,54.20
2019-06-20T22:45:37.446Z,53.80
2019-06-20T22:48:06.412Z,54.30
2019-06-20T22:50:35.261Z,54.60
2019-06-20T22:53:04.287Z,54.90
2019-06-20T22:55:33.131Z,54.70
2019-06-20T22:58:01.999Z,55.20
2019-06-20T23:00:30.881Z,55.30
2019-06-20T23:02:59.733Z,55.00
2019-06-20T23:05:28.588Z,54.60
2019-06-20T23:07:57.536Z,55.20
2019-06-20T23:10:26.388Z,56.20
2019-06-20T23:12:55.235Z,55.30
2019-06-20T23:15:24.303Z,55.60
2019-06-20T23:17:53.143Z,55.30
2019-06-20T23:20:22.093Z,55.20
2019-06-20T23:22:51.002Z,54.40
2019-06-20T23:25:19.873Z,54.20
2019-06-20T23:27:48.684Z,54.40
2019-06-20T23:30:18.258Z,54.30
2019-06-20T23:32:47.132Z,54.90
2019-06-20T23:35:15.993Z,55.60
2019-06-20T23:37:44.884Z,56.20
2019-06-20T23:40:13.846Z,56.00
2019-06-20T23:42:42.690Z,55.60
2019-06-20T23:45:11.714Z,55.90
2019-06-20T23:47:40.557Z,56.20
2019-06-20T23:50:20.197Z,56.00
2019-06-20T23:52:58.304Z,56.40
2019-06-20T23:55:27.192Z,57.60
2019-06-20T23:57:56.037Z,57.10
